Time;durP1;ratioP1;P1;durP2;ratioP2;P2;SDS_P1;SDS_P2;PMS_P1;PMS_P2;Temp;Humidity;BMP_temperature;BMP_pressure;BME280_temperature;BME280_humidity;BME280_pressure;Samples;Min_cycle;Max_cycle;Signal;HPM_P1;HPM_P2
2023/10/03 00:00:00;;;;;;;13.60;11.30;;;19.90;99.90;;;;;;5103121;28;20516;-86
2023/10/03 00:02:38;;;;;;;12.60;10.47;;;19.80;99.90;;;;;;5092701;28;20466;-88
2023/10/03 00:05:11;;;;;;;11.70;10.33;;;19.90;99.90;;;;;;5101278;28;20468;-87
2023/10/03 00:07:42;;;;;;;12.00;10.13;;;19.90;99.90;;;;;;5099804;28;20946;-87
2023/10/03 00:10:09;;;;;;;11.53;9.80;;;19.90;99.90;;;;;;5092562;28;20465;-85
2023/10/03 00:12:42;;;;;;;11.90;10.60;;;19.80;99.90;;;;;;5115468;28;20524;-87
2023/10/03 00:15:12;;;;;;;11.60;10.00;;;19.80;99.90;;;;;;5115329;28;20487;-87
2023/10/03 00:17:41;;;;;;;11.60;10.50;;;19.80;99.90;;;;;;5115876;28;20476;-86
2023/10/03 00:20:12;;;;;;;10.90;9.80;;;19.80;99.90;;;;;;5111319;28;20483;-86
2023/10/03 00:22:44;;;;;;;10.53;9.43;;;19.80;99.90;;;;;;5095236;28;20475;-87
2023/10/03 00:25:18;;;;;;;11.30;10.20;;;19.80;99.90;;;;;;5092860;28;21001;-86
2023/10/03 00:27:46;;;;;;;12.23;10.23;;;19.80;99.90;;;;;;5094328;28;20951;-87
2023/10/03 00:30:46;;;;;;;10.80;9.70;;;19.80;99.90;;;;;;5094977;28;20466;-87
2023/10/03 00:33:17;;;;;;;12.10;9.40;;;19.80;99.90;;;;;;5049285;28;20465;-86
2023/10/03 00:35:50;;;;;;;10.70;9.60;;;19.70;99.90;;;;;;5086507;28;20854;-88
2023/10/03 00:38:20;;;;;;;12.83;10.40;;;19.70;99.90;;;;;;5076243;28;20854;-87
2023/10/03 00:40:55;;;;;;;10.40;9.30;;;19.70;99.90;;;;;;5085230;28;20529;-86
2023/10/03 00:43:54;;;;;;;11.57;10.30;;;19.70;99.90;;;;;;5094380;28;20481;-88
2023/10/03 00:46:26;;;;;;;13.43;11.27;;;19.70;99.90;;;;;;5094906;28;20466;-88
2023/10/03 00:49:10;;;;;;;12.00;9.83;;;19.70;99.90;;;;;;5096590;28;20461;-86
2023/10/03 00:51:42;;;;;;;18.87;13.10;;;19.60;99.90;;;;;;5084538;28;20472;-86
2023/10/03 00:54:22;;;;;;;12.83;11.57;;;19.60;99.90;;;;;;5093442;28;20458;-86
2023/10/03 00:56:49;;;;;;;15.77;12.30;;;19.70;99.90;;;;;;5085221;28;20468;-86
2023/10/03 00:59:17;;;;;;;13.80;11.50;;;19.70;99.90;;;;;;5106974;28;20465;-88
2023/10/03 01:01:59;;;;;;;;;;;;;;;;;;;;;
2023/10/03 01:04:32;;;;;;;12.47;10.03;;;19.70;99.90;;;;;;5106935;28;20547;-85
2023/10/03 01:07:02;;;;;;;10.20;7.60;;;19.60;99.90;;;;;;5112881;28;21002;-87
2023/10/03 01:09:34;;;;;;;11.43;9.13;;;19.60;99.90;;;;;;5114045;28;20475;-85
2023/10/03 01:12:05;;;;;;;10.07;8.53;;;19.60;99.90;;;;;;5112874;28;20551;-86
2023/10/03 01:14:41;;;;;;;9.60;8.23;;;19.60;99.90;;;;;;5081107;28;20464;-87
2023/10/03 01:17:19;;;;;;;10.83;9.73;;;19.60;99.90;;;;;;5104889;28;20490;-85
2023/10/03 01:19:56;;;;;;;63.27;51.47;;;19.60;99.90;;;;;;5114146;28;20946;-85
2023/10/03 01:22:28;;;;;;;30.33;25.10;;;19.60;99.90;;;;;;5093537;28;20940;-87
2023/10/03 01:24:57;;;;;;;26.17;20.80;;;19.50;99.90;;;;;;5101760;28;20495;-87
2023/10/03 01:27:30;;;;;;;19.77;16.03;;;19.60;99.90;;;;;;5092171;28;20488;-86
2023/10/03 01:30:08;;;;;;;13.37;11.93;;;19.50;99.90;;;;;;5098942;28;20471;-88
2023/10/03 01:32:38;;;;;;;13.23;10.47;;;19.50;99.90;;;;;;5113741;28;20536;-84
2023/10/03 01:35:16;;;;;;;11.17;10.03;;;19.50;99.90;;;;;;5115229;28;20484;-86
2023/10/03 01:37:45;;;;;;;10.23;8.60;;;19.50;99.90;;;;;;5113856;28;20509;-89
2023/10/03 01:40:27;;;;;;;10.83;9.03;;;19.50;99.90;;;;;;5110510;28;20466;-85
2023/10/03 01:42:55;;;;;;;10.50;9.50;;;19.50;99.90;;;;;;5075102;28;20948;-86
2023/10/03 01:45:32;;;;;;;9.40;8.40;;;19.50;99.90;;;;;;5071935;28;20466;-85
2023/10/03 01:48:05;;;;;;;9.30;8.40;;;19.50;99.90;;;;;;5074267;28;20516;-86
2023/10/03 01:50:34;;;;;;;12.63;9.60;;;19.40;99.90;;;;;;5065335;28;20450;-84
2023/10/03 01:53:02;;;;;;;10.53;7.60;;;19.40;99.90;;;;;;5074047;28;20470;-84
2023/10/03 01:55:30;;;;;;;9.10;8.20;;;19.40;99.90;;;;;;5073137;28;20479;-87
2023/10/03 01:58:19;;;;;;;9.17;8.13;;;19.40;99.90;;;;;;5085812;28;20558;-84
2023/10/03 02:00:48;;;;;;;12.53;8.60;;;19.40;99.90;;;;;;5085696;28;20461;-84
2023/10/03 02:03:16;;;;;;;9.47;8.57;;;19.40;99.90;;;;;;5092798;28;20453;-86
2023/10/03 02:05:46;;;;;;;9.30;8.40;;;19.40;99.90;;;;;;5094861;28;20473;-86
2023/10/03 02:08:15;;;;;;;15.67;13.07;;;19.40;99.90;;;;;;5094014;28;20473;-88
2023/10/03 02:10:45;;;;;;;20.07;15.87;;;19.30;99.90;;;;;;5094028;28;20465;-84
2023/10/03 02:13:17;;;;;;;14.80;11.80;;;19.30;99.90;;;;;;5098702;28;20540;-83
2023/10/03 02:15:48;;;;;;;11.70;10.40;;;19.30;99.90;;;;;;5094783;28;20472;-87
2023/10/03 02:18:17;;;;;;;10.27;8.67;;;19.30;99.90;;;;;;5093617;28;20476;-86
2023/10/03 02:20:51;;;;;;;12.13;8.90;;;19.30;99.90;;;;;;5094579;28;20789;-87
2023/10/03 02:23:20;;;;;;;11.83;8.47;;;19.30;99.90;;;;;;5077988;28;20523;-85
2023/10/03 02:25:51;;;;;;;9.50;7.53;;;19.30;99.90;;;;;;5076574;28;20474;-85
2023/10/03 02:28:20;;;;;;;10.37;8.33;;;19.30;99.90;;;;;;5058864;28;20473;-84
2023/10/03 02:30:48;;;;;;;12.47;9.47;;;19.20;99.90;;;;;;5071050;28;20987;-84
2023/10/03 02:33:17;;;;;;;15.27;10.50;;;19.30;99.90;;;;;;5076056;28;20532;-84
2023/10/03 02:35:46;;;;;;;69.57;42.67;;;19.30;99.90;;;;;;5077343;28;20808;-84
2023/10/03 02:38:17;;;;;;;33.60;25.70;;;19.20;99.90;;;;;;5062304;28;20811;-81
2023/10/03 02:40:46;;;;;;;46.77;36.40;;;19.20;99.90;;;;;;5057753;28;20480;-84
2023/10/03 02:43:15;;;;;;;21.73;17.60;;;19.20;99.90;;;;;;5056542;28;20939;-84
2023/10/03 02:45:42;;;;;;;26.20;17.70;;;19.20;99.90;;;;;;5058166;28;20481;-84
2023/10/03 02:48:14;;;;;;;27.00;18.67;;;19.10;99.90;;;;;;5057307;28;20470;-83
2023/10/03 02:50:46;;;;;;;17.97;12.40;;;19.10;99.90;;;;;;5058295;28;20871;-88
2023/10/03 02:53:14;;;;;;;16.57;13.33;;;19.10;99.90;;;;;;5059240;28;20481;-88
2023/10/03 02:55:42;;;;;;;14.97;11.13;;;19.10;99.90;;;;;;5061436;28;20467;-87
2023/10/03 02:58:32;;;;;;;12.03;9.20;;;19.10;99.90;;;;;;5064069;28;20481;-88
2023/10/03 03:01:01;;;;;;;11.40;9.10;;;19.00;99.90;;;;;;5068419;28;20467;-84
2023/10/03 03:03:32;;;;;;;10.33;7.53;;;19.10;99.90;;;;;;5064012;28;20509;-83
2023/10/03 03:06:02;;;;;;;9.70;7.80;;;19.10;99.90;;;;;;5070822;28;20468;-83
2023/10/03 03:08:30;;;;;;;13.63;9.00;;;19.10;99.90;;;;;;5076074;28;20475;-88
2023/10/03 03:11:32;;;;;;;13.47;11.57;;;19.00;99.90;;;;;;5074760;28;20467;-85
2023/10/03 03:14:04;;;;;;;15.20;11.70;;;19.00;99.90;;;;;;5085321;28;20468;-83
2023/10/03 03:16:40;;;;;;;17.53;12.90;;;19.00;99.90;;;;;;5094364;28;20462;-82
2023/10/03 03:19:11;;;;;;;11.00;9.50;;;19.00;99.90;;;;;;5083746;28;20454;-85
2023/10/03 03:21:42;;;;;;;14.10;11.13;;;19.00;99.90;;;;;;5093544;28;20462;-87
2023/10/03 03:24:10;;;;;;;20.13;12.50;;;19.00;99.90;;;;;;5087932;28;20454;-87
2023/10/03 03:26:58;;;;;;;20.20;16.07;;;19.00;99.90;;;;;;5083055;28;20466;-83
2023/10/03 03:29:35;;;;;;;19.10;13.10;;;18.90;99.90;;;;;;5082609;28;20467;-82
2023/10/03 03:32:06;;;;;;;12.10;10.37;;;18.90;99.90;;;;;;5093443;28;20457;-88
2023/10/03 03:34:34;;;;;;;15.43;10.90;;;18.90;99.90;;;;;;5101685;28;20453;-86
2023/10/03 03:37:21;;;;;;;14.80;9.87;;;18.90;99.90;;;;;;5110543;28;20521;-82
2023/10/03 03:39:53;;;;;;;13.80;11.07;;;18.90;99.90;;;;;;5120606;28;20521;-82
2023/10/03 03:42:22;;;;;;;16.77;11.53;;;18.90;99.90;;;;;;5120979;28;20545;-84
2023/10/03 03:44:50;;;;;;;17.87;11.27;;;18.90;99.90;;;;;;5120263;28;20464;-82
2023/10/03 03:47:27;;;;;;;14.93;10.77;;;18.90;99.90;;;;;;5102165;28;20486;-82
2023/10/03 03:49:55;;;;;;;15.27;11.90;;;18.90;99.90;;;;;;5117033;28;20494;-82
2023/10/03 03:52:22;;;;;;;17.10;10.93;;;18.90;99.90;;;;;;5118574;28;20465;-82
2023/10/03 03:54:49;;;;;;;24.40;15.50;;;18.90;99.90;;;;;;5117387;28;20473;-84
2023/10/03 03:57:17;;;;;;;14.93;13.13;;;18.80;99.90;;;;;;5120803;28;20478;-85
2023/10/03 03:59:47;;;;;;;14.73;11.70;;;18.80;99.90;;;;;;5119758;28;20469;-85
2023/10/03 04:02:15;;;;;;;12.23;10.77;;;18.80;99.90;;;;;;5119891;28;20498;-85
2023/10/03 04:04:42;;;;;;;17.13;12.57;;;18.80;99.90;;;;;;5117583;28;20473;-84
2023/10/03 04:07:11;;;;;;;15.03;10.43;;;18.80;99.90;;;;;;5115091;28;21010;-84
2023/10/03 04:09:38;;;;;;;19.13;11.77;;;18.80;99.90;;;;;;5096659;28;20469;-84
2023/10/03 04:12:05;;;;;;;16.20;10.67;;;18.70;99.90;;;;;;5096078;28;20465;-86
2023/10/03 04:14:32;;;;;;;14.33;9.40;;;18.70;99.90;;;;;;5096644;28;20552;-86
2023/10/03 04:16:59;;;;;;;14.83;9.90;;;18.70;99.90;;;;;;5097601;28;20468;-85
2023/10/03 04:19:28;;;;;;;16.63;11.27;;;18.70;99.90;;;;;;5099281;28;20462;-86
2023/10/03 04:21:56;;;;;;;20.53;14.17;;;18.70;99.90;;;;;;5098331;28;20496;-83
2023/10/03 04:24:23;;;;;;;15.00;11.00;;;18.70;99.90;;;;;;5098918;28;20469;-86
2023/10/03 04:26:54;;;;;;;16.10;9.97;;;18.70;99.90;;;;;;5098221;28;20465;-85
2023/10/03 04:29:21;;;;;;;15.40;11.40;;;18.70;99.90;;;;;;5097105;28;20470;-85
2023/10/03 04:31:48;;;;;;;13.00;10.20;;;18.70;99.90;;;;;;5104587;28;21133;-85
2023/10/03 04:34:18;;;;;;;42.03;27.87;;;18.70;99.90;;;;;;5109921;28;20795;-85
2023/10/03 04:36:47;;;;;;;15.30;11.60;;;18.70;99.90;;;;;;5121595;28;20464;-84
2023/10/03 04:39:15;;;;;;;18.03;11.93;;;18.70;99.90;;;;;;5122107;28;20930;-83
2023/10/03 04:41:44;;;;;;;13.73;10.30;;;18.70;99.90;;;;;;5122984;28;20486;-84
2023/10/03 04:44:16;;;;;;;70.67;54.37;;;18.60;99.90;;;;;;5122165;28;20459;-84
2023/10/03 04:46:44;;;;;;;55.93;45.87;;;18.70;99.90;;;;;;5123359;28;20464;-87
2023/10/03 04:49:11;;;;;;;31.43;22.10;;;18.70;99.90;;;;;;5122589;28;20465;-84
2023/10/03 04:51:45;;;;;;;16.67;11.33;;;18.80;99.90;;;;;;5122337;28;20465;-85
2023/10/03 04:54:29;;;;;;;18.00;11.90;;;18.80;99.90;;;;;;5113680;28;20526;-86
2023/10/03 04:56:58;;;;;;;15.47;10.53;;;18.80;99.90;;;;;;5123408;28;20559;-85
2023/10/03 04:59:28;;;;;;;19.20;12.47;;;18.80;99.90;;;;;;5119126;28;20486;-83
2023/10/03 05:01:55;;;;;;;17.83;11.00;;;18.80;99.90;;;;;;5098379;28;20970;-86
2023/10/03 05:04:28;;;;;;;19.00;11.70;;;18.70;99.90;;;;;;5106403;28;20555;-86
2023/10/03 05:06:55;;;;;;;19.70;11.70;;;18.70;99.90;;;;;;5118626;28;20495;-84
2023/10/03 05:09:29;;;;;;;14.70;10.70;;;18.70;99.90;;;;;;5108032;28;20488;-86
2023/10/03 05:11:58;;;;;;;14.80;10.63;;;18.70;99.90;;;;;;5116671;28;20468;-85
2023/10/03 05:14:27;;;;;;;19.43;11.90;;;18.70;99.90;;;;;;5115399;28;20529;-84
2023/10/03 05:16:55;;;;;;;17.07;11.40;;;18.70;99.90;;;;;;5115323;28;20464;-84
2023/10/03 05:19:32;;;;;;;14.93;11.13;;;18.70;99.90;;;;;;5104255;28;20476;-84
2023/10/03 05:22:03;;;;;;;16.40;12.53;;;18.70;99.90;;;;;;5121455;28;20471;-84
2023/10/03 05:24:35;;;;;;;18.23;11.50;;;18.80;99.90;;;;;;5117877;28;20473;-84
2023/10/03 05:27:07;;;;;;;16.97;11.50;;;18.80;99.90;;;;;;5121993;28;20495;-84
2023/10/03 05:29:57;;;;;;;16.90;11.20;;;18.80;99.90;;;;;;5117855;28;20460;-86
2023/10/03 05:32:26;;;;;;;15.97;10.40;;;18.90;99.90;;;;;;5115626;28;20472;-84
2023/10/03 05:34:56;;;;;;;18.40;12.33;;;18.90;99.90;;;;;;5119951;28;20488;-86
2023/10/03 05:37:33;;;;;;;19.70;12.60;;;19.00;99.90;;;;;;5117218;28;20468;-86
2023/10/03 05:40:18;;;;;;;;;;;;;;;;;;;;;
2023/10/03 05:42:48;;;;;;;18.30;13.23;;;19.00;99.90;;;;;;5116479;28;20464;-86
2023/10/03 05:45:19;;;;;;;15.80;11.50;;;19.00;99.90;;;;;;5117673;28;20469;-86
2023/10/03 05:47:49;;;;;;;19.50;12.30;;;19.10;99.90;;;;;;5118720;28;20551;-84
2023/10/03 05:53:02;;;;;;;21.17;12.20;;;19.10;99.90;;;;;;5121244;28;20549;-84
2023/10/03 05:55:29;;;;;;;16.00;11.00;;;19.10;99.90;;;;;;5121803;28;20464;-84
2023/10/03 05:57:58;;;;;;;18.00;13.57;;;19.10;99.90;;;;;;5122218;28;20468;-85
2023/10/03 06:00:41;;;;;;;15.80;12.80;;;19.10;99.90;;;;;;5103635;28;20485;-85
2023/10/03 06:03:09;;;;;;;18.50;12.47;;;19.10;99.90;;;;;;5103707;28;20571;-87
2023/10/03 06:05:36;;;;;;;13.90;11.43;;;19.20;99.90;;;;;;5113155;28;20495;-85
2023/10/03 06:08:05;;;;;;;17.97;12.83;;;19.20;99.90;;;;;;5105875;28;20962;-85
2023/10/03 06:10:39;;;;;;;19.03;12.80;;;19.10;99.90;;;;;;5090441;28;20499;-87
2023/10/03 06:13:34;;;;;;;20.57;12.43;;;19.10;99.90;;;;;;5115560;28;20461;-86
2023/10/03 06:16:08;;;;;;;17.70;12.17;;;19.10;99.90;;;;;;5114071;28;20525;-85
2023/10/03 06:18:39;;;;;;;21.70;12.23;;;19.20;99.90;;;;;;5115835;28;20487;-85
2023/10/03 06:21:08;;;;;;;17.77;11.93;;;19.20;99.90;;;;;;5114885;28;20466;-86
2023/10/03 06:23:37;;;;;;;18.80;11.90;;;19.20;99.90;;;;;;5109113;28;20476;-84
2023/10/03 06:29:45;;;;;;;17.77;10.67;;;19.30;99.90;;;;;;5052906;28;20523;-84
2023/10/03 06:51:18;;;;;;;23.73;12.70;;;19.30;99.90;;;;;;5047644;22;20453;-85
2023/10/03 06:53:48;;;;;;;18.00;11.50;;;19.30;99.90;;;;;;5035060;28;20488;-83
2023/10/03 06:56:15;;;;;;;19.03;12.03;;;19.40;99.90;;;;;;5033595;28;20528;-85
2023/10/03 06:58:47;;;;;;;19.03;12.40;;;19.40;99.90;;;;;;5033974;28;20461;-85
2023/10/03 07:01:17;;;;;;;18.20;11.80;;;19.50;99.90;;;;;;5034642;28;20939;-84
2023/10/03 07:03:44;;;;;;;17.10;12.20;;;19.50;99.90;;;;;;5036638;28;20533;-85
2023/10/03 07:06:25;;;;;;;19.13;11.70;;;19.50;99.90;;;;;;5027827;28;20501;-86
2023/10/03 07:08:55;;;;;;;19.63;13.00;;;19.50;99.90;;;;;;5042037;28;20483;-86
2023/10/03 07:11:26;;;;;;;19.67;12.10;;;19.60;99.90;;;;;;5037509;28;20425;-86
2023/10/03 07:13:54;;;;;;;22.73;13.23;;;19.70;99.90;;;;;;5036709;28;20476;-87
2023/10/03 07:19:24;;;;;;;19.67;13.13;;;19.70;99.90;;;;;;5016044;28;20469;-86
2023/10/03 07:21:57;;;;;;;19.50;12.90;;;19.80;99.90;;;;;;5034369;28;20465;-86
2023/10/03 07:24:53;;;;;;;21.13;13.60;;;19.80;99.90;;;;;;5033020;28;20483;-87
2023/10/03 07:27:30;;;;;;;18.80;12.90;;;19.90;99.90;;;;;;5027662;28;20532;-87
2023/10/03 07:32:45;;;;;;;17.40;12.30;;;20.00;99.90;;;;;;5022176;28;20488;-86
2023/10/03 07:35:43;;;;;;;24.50;14.40;;;20.00;99.90;;;;;;5049197;28;20469;-85
2023/10/03 07:39:09;;;;;;;;;;;;;;;;;;;;;
2023/10/03 07:45:02;;;;;;;22.10;14.07;;;20.20;99.90;;;;;;5023695;28;20513;-85
2023/10/03 07:47:37;;;;;;;22.37;15.30;;;20.30;99.90;;;;;;5033081;28;20461;-86
2023/10/03 07:50:11;;;;;;;21.57;14.40;;;20.40;99.90;;;;;;5034518;28;20464;-87
2023/10/03 07:53:03;;;;;;;22.63;15.40;;;20.50;99.90;;;;;;5028368;28;20445;-86
2023/10/03 07:56:11;;;;;;;28.93;17.70;;;20.50;99.90;;;;;;5024199;28;20464;-85
2023/10/03 08:02:14;;;;;;;21.13;14.03;;;20.60;99.90;;;;;;5022024;28;20578;-86
2023/10/03 08:05:16;;;;;;;24.73;16.77;;;20.70;99.90;;;;;;5024516;28;20528;-84
2023/10/03 08:07:52;;;;;;;25.23;17.70;;;20.80;99.90;;;;;;5014180;28;20475;-87
2023/10/03 08:16:35;;;;;;;35.47;24.30;;;21.10;99.90;;;;;;5031810;28;20475;-88
2023/10/03 08:19:08;;;;;;;23.43;16.27;;;21.20;99.90;;;;;;5039062;28;20469;-86
2023/10/03 08:21:43;;;;;;;23.07;16.17;;;21.20;99.90;;;;;;5031070;28;20470;-85
2023/10/03 08:24:14;;;;;;;25.20;17.43;;;21.40;99.90;;;;;;5027077;28;20479;-86
2023/10/03 08:26:53;;;;;;;26.10;18.40;;;21.40;99.90;;;;;;5028147;28;20508;-85
2023/10/03 08:29:35;;;;;;;27.40;20.20;;;21.60;99.90;;;;;;5029537;28;20529;-86
2023/10/03 08:32:18;;;;;;;27.20;17.63;;;21.60;99.90;;;;;;5020424;28;20476;-86
2023/10/03 08:35:34;;;;;;;25.50;17.47;;;21.70;99.90;;;;;;5026321;28;20496;-89
2023/10/03 08:38:43;;;;;;;24.93;17.50;;;21.80;99.90;;;;;;5011049;28;20484;-84
2023/10/03 08:41:35;;;;;;;24.93;15.43;;;21.90;99.90;;;;;;5026184;28;20472;-85
2023/10/03 08:47:20;;;;;;;27.30;18.93;;;22.00;99.90;;;;;;5157485;22;20511;-87
2023/10/03 08:50:14;;;;;;;24.50;15.77;;;22.00;99.90;;;;;;4996102;28;20537;-85
2023/10/03 08:52:47;;;;;;;20.77;15.50;;;22.10;99.90;;;;;;4998710;28;20490;-86
2023/10/03 08:55:19;;;;;;;20.30;15.97;;;22.20;99.90;;;;;;4998966;28;20614;-86
2023/10/03 08:58:00;;;;;;;25.60;17.20;;;22.20;99.90;;;;;;4999385;28;21046;-86
2023/10/03 09:00:40;;;;;;;26.43;15.67;;;22.30;99.90;;;;;;4996930;28;20824;-86
2023/10/03 09:03:15;;;;;;;22.77;15.10;;;22.30;99.90;;;;;;4990577;28;20482;-87
2023/10/03 09:06:02;;;;;;;21.67;14.87;;;22.40;99.90;;;;;;4996881;28;20466;-87
2023/10/03 09:09:08;;;;;;;21.13;14.13;;;22.40;99.90;;;;;;4998960;28;20477;-88
2023/10/03 09:12:20;;;;;;;20.37;15.00;;;22.40;99.90;;;;;;4987659;28;20492;-85
2023/10/03 09:18:28;;;;;;;21.60;15.70;;;22.40;99.90;;;;;;4789816;29;20493;-88
2023/10/03 09:21:23;;;;;;;18.83;15.50;;;22.40;99.90;;;;;;4926058;29;20480;-86
2023/10/03 09:24:09;;;;;;;22.50;15.30;;;22.40;99.90;;;;;;4987384;28;20478;-87
2023/10/03 09:29:51;;;;;;;24.53;17.07;;;22.50;99.90;;;;;;4975702;28;20480;-85
2023/10/03 09:32:28;;;;;;;25.63;18.57;;;22.60;99.90;;;;;;4994686;28;20469;-87
2023/10/03 09:34:58;;;;;;;25.03;20.00;;;22.60;99.90;;;;;;5000968;28;21003;-87
2023/10/03 09:37:36;;;;;;;23.30;17.20;;;22.60;99.90;;;;;;4995875;28;20984;-86
2023/10/03 09:40:16;;;;;;;24.87;17.20;;;22.70;99.90;;;;;;4994606;28;21037;-85
2023/10/03 09:42:49;;;;;;;20.23;15.50;;;22.70;99.90;;;;;;4985396;28;20528;-87
2023/10/03 09:45:24;;;;;;;23.83;17.00;;;22.80;99.90;;;;;;4993107;28;21068;-87
2023/10/03 09:47:58;;;;;;;21.40;15.90;;;22.80;99.90;;;;;;5004871;28;20449;-87
2023/10/03 09:50:26;;;;;;;20.50;15.57;;;22.80;99.90;;;;;;4991784;28;20481;-88
2023/10/03 09:53:01;;;;;;;27.03;14.90;;;22.90;99.90;;;;;;4996086;28;20489;-86
2023/10/03 09:55:55;;;;;;;17.87;13.57;;;22.80;99.90;;;;;;4995355;28;21110;-87
2023/10/03 09:58:34;;;;;;;20.33;14.63;;;22.90;99.90;;;;;;4995408;28;20475;-86
2023/10/03 10:01:18;;;;;;;20.70;15.17;;;22.90;99.90;;;;;;5003085;28;20489;-86
2023/10/03 10:06:57;;;;;;;22.80;18.03;;;22.80;99.90;;;;;;5181282;22;20452;-87
2023/10/03 10:12:53;;;;;;;;;;;;;;;;;;;;;
2023/10/03 10:18:15;;;;;;;35.20;31.27;;;22.50;99.90;;;;;;4964815;28;20530;-87
2023/10/03 10:20:50;;;;;;;55.83;47.60;;;22.50;99.90;;;;;;5023609;28;20469;-88
2023/10/03 10:23:17;;;;;;;51.00;41.10;;;22.40;99.90;;;;;;5016505;28;20521;-85
2023/10/03 10:26:27;;;;;;;56.57;47.97;;;22.40;99.90;;;;;;5006541;28;20477;-88
2023/10/03 10:29:19;;;;;;;50.07;41.57;;;22.40;99.90;;;;;;5006412;28;20531;-86
2023/10/03 10:34:46;;;;;;;52.80;43.20;;;22.50;99.90;;;;;;5007241;28;20464;-85
2023/10/03 10:43:16;;;;;;;40.90;35.00;;;22.40;99.90;;;;;;5013242;28;20471;-85
2023/10/03 10:46:49;;;;;;;;;;;;;;;;;;;;;
2023/10/03 10:53:06;;;;;;;;;;;;;;;;;;;;;
2023/10/03 10:55:37;;;;;;;33.43;26.57;;;22.60;99.90;;;;;;5018669;28;20829;-84
2023/10/03 11:01:20;;;;;;;39.70;29.10;;;22.70;99.90;;;;;;5013872;28;20482;-87
2023/10/03 11:03:50;;;;;;;34.97;28.67;;;22.60;99.90;;;;;;5018244;28;20508;-88
2023/10/03 11:13:09;;;;;;;44.80;37.67;;;22.90;99.90;;;;;;4927621;29;20473;-87
2023/10/03 11:15:48;;;;;;;28.57;22.40;;;22.90;99.90;;;;;;4984350;28;20524;-88
2023/10/03 11:21:53;;;;;;;49.50;37.77;;;23.10;99.90;;;;;;4983268;28;20516;-87
2023/10/03 11:24:41;;;;;;;30.40;24.93;;;23.10;99.90;;;;;;5007273;28;20538;-85
2023/10/03 11:27:08;;;;;;;31.47;27.57;;;23.10;99.90;;;;;;5004601;28;20477;-85
2023/10/03 11:29:51;;;;;;;27.00;19.33;;;23.20;99.90;;;;;;5009824;28;20469;-86
2023/10/03 11:32:24;;;;;;;28.40;21.63;;;23.30;99.90;;;;;;5011173;28;20504;-86
2023/10/03 11:34:57;;;;;;;25.40;18.57;;;23.30;99.90;;;;;;5015245;28;20472;-88
2023/10/03 11:40:49;;;;;;;28.20;22.93;;;23.40;99.90;;;;;;4999666;28;20480;-84
2023/10/03 11:43:28;;;;;;;23.43;18.37;;;23.40;99.90;;;;;;4997999;28;21052;-86
2023/10/03 11:46:29;;;;;;;25.53;19.10;;;23.40;99.90;;;;;;5048549;22;21022;-85
2023/10/03 11:49:08;;;;;;;26.23;20.87;;;23.40;99.90;;;;;;5026150;28;20468;-89
2023/10/03 11:51:42;;;;;;;24.00;21.40;;;23.40;99.90;;;;;;5037721;28;20460;-86
2023/10/03 12:03:21;;;;;;;45.77;39.40;;;23.40;99.90;;;;;;4958223;28;20471;-87
2023/10/03 12:05:49;;;;;;;26.83;24.03;;;23.40;99.90;;;;;;4930143;29;20547;-85
2023/10/03 12:08:19;;;;;;;48.13;39.87;;;23.30;99.90;;;;;;4955037;28;20463;-88
2023/10/03 12:10:51;;;;;;;44.77;36.87;;;23.30;99.90;;;;;;4950101;28;20474;-85
2023/10/03 12:13:27;;;;;;;27.20;22.97;;;23.30;99.90;;;;;;4957758;28;20802;-87
2023/10/03 12:16:04;;;;;;;45.70;37.83;;;23.30;99.90;;;;;;4956471;28;20573;-84
2023/10/03 12:18:39;;;;;;;38.70;30.33;;;23.30;99.90;;;;;;4953257;28;20463;-86
2023/10/03 12:21:09;;;;;;;44.57;39.13;;;23.30;99.90;;;;;;4949235;28;20546;-85
2023/10/03 12:23:38;;;;;;;60.63;53.67;;;23.30;99.90;;;;;;4962001;28;20484;-87
2023/10/03 12:26:08;;;;;;;62.60;54.93;;;23.30;99.90;;;;;;4955911;28;20474;-87
2023/10/03 12:28:36;;;;;;;135.17;114.60;;;23.30;99.90;;;;;;4949062;28;20525;-85
2023/10/03 12:31:06;;;;;;;118.80;100.63;;;23.20;99.90;;;;;;4957146;28;20869;-88
2023/10/03 12:33:38;;;;;;;133.80;111.90;;;23.00;99.90;;;;;;4955232;28;20981;-88
2023/10/03 12:36:16;;;;;;;95.70;79.33;;;23.00;99.90;;;;;;4955867;28;20471;-87
2023/10/03 12:38:51;;;;;;;68.60;57.97;;;23.00;99.90;;;;;;4950484;28;21031;-87
2023/10/03 12:45:00;;;;;;;80.10;64.83;;;23.10;99.90;;;;;;4937911;28;20474;-89
2023/10/03 12:47:36;;;;;;;70.73;60.70;;;23.20;99.90;;;;;;4940853;28;20543;-89
2023/10/03 12:50:10;;;;;;;68.27;58.17;;;23.20;99.90;;;;;;4963076;28;20482;-88
2023/10/03 12:53:11;;;;;;;81.33;72.50;;;23.20;99.90;;;;;;4951427;28;20535;-86
2023/10/03 12:59:18;;;;;;;66.47;57.40;;;23.20;99.90;;;;;;4971756;28;20472;-88
2023/10/03 13:01:51;;;;;;;56.57;47.60;;;23.20;99.90;;;;;;4947713;28;20478;-87
2023/10/03 13:04:30;;;;;;;66.67;59.47;;;23.20;99.90;;;;;;4964270;28;20479;-88
2023/10/03 13:07:00;;;;;;;48.47;43.40;;;23.20;99.90;;;;;;4965724;28;20474;-88
2023/10/03 13:09:30;;;;;;;68.53;61.30;;;23.20;99.90;;;;;;4970424;28;20463;-85
2023/10/03 13:11:59;;;;;;;74.47;63.53;;;23.20;99.90;;;;;;4973228;28;20474;-84
2023/10/03 13:14:31;;;;;;;73.37;65.23;;;23.10;99.90;;;;;;4956739;28;20508;-86
2023/10/03 13:17:22;;;;;;;48.60;41.57;;;23.10;99.90;;;;;;4966656;28;20992;-88
2023/10/03 13:19:52;;;;;;;62.33;55.60;;;23.10;99.90;;;;;;4938825;28;20463;-86
2023/10/03 13:22:25;;;;;;;58.47;52.27;;;23.10;99.90;;;;;;4963640;28;20881;-86
2023/10/03 13:24:54;;;;;;;55.13;46.43;;;23.10;99.90;;;;;;4968489;28;20471;-86
2023/10/03 13:27:31;;;;;;;63.37;56.50;;;23.10;99.90;;;;;;4963442;28;20498;-85
2023/10/03 13:30:10;;;;;;;83.60;74.10;;;23.10;99.90;;;;;;4971724;28;20950;-86
2023/10/03 13:32:56;;;;;;;71.20;63.80;;;23.10;99.90;;;;;;4968560;28;20467;-88
2023/10/03 13:35:25;;;;;;;98.50;84.43;;;23.00;99.90;;;;;;4963295;28;20597;-85
2023/10/03 13:37:56;;;;;;;102.33;91.23;;;23.00;99.90;;;;;;4930629;29;20469;-84
2023/10/03 13:40:23;;;;;;;99.27;88.50;;;23.00;99.90;;;;;;4942968;28;20513;-85
2023/10/03 13:42:55;;;;;;;125.70;111.87;;;23.00;99.90;;;;;;4967110;28;20574;-87
2023/10/03 13:45:23;;;;;;;92.60;78.00;;;23.00;99.90;;;;;;4961604;28;20883;-84
2023/10/03 13:47:56;;;;;;;158.37;129.40;;;23.00;99.90;;;;;;4962027;28;20455;-85
2023/10/03 13:50:33;;;;;;;40.10;34.53;;;23.00;99.90;;;;;;4959776;28;20464;-84
2023/10/03 13:53:09;;;;;;;97.97;87.30;;;23.00;99.90;;;;;;4956004;28;20514;-85
2023/10/03 13:55:41;;;;;;;81.20;72.37;;;23.00;99.90;;;;;;4972118;28;20487;-89
2023/10/03 13:58:14;;;;;;;82.20;69.10;;;23.00;99.90;;;;;;4970791;28;20513;-87
2023/10/03 14:00:41;;;;;;;106.23;89.93;;;23.00;99.90;;;;;;4977356;28;20460;-87
2023/10/03 14:03:19;;;;;;;112.60;97.50;;;23.00;99.90;;;;;;4979182;28;20547;-87
2023/10/03 14:05:52;;;;;;;100.63;88.90;;;23.00;99.90;;;;;;4986856;28;20867;-86
2023/10/03 14:08:30;;;;;;;84.77;75.47;;;23.00;99.90;;;;;;4969040;28;20474;-88
2023/10/03 14:11:01;;;;;;;106.13;92.10;;;23.00;99.90;;;;;;4945923;28;20518;-86
2023/10/03 14:13:28;;;;;;;117.73;103.60;;;23.00;99.90;;;;;;4969916;28;20505;-84
2023/10/03 14:15:56;;;;;;;144.17;124.73;;;23.00;99.90;;;;;;4972156;28;20498;-86
2023/10/03 14:18:31;;;;;;;136.33;117.93;;;23.00;99.90;;;;;;4976478;28;20493;-86
2023/10/03 14:21:10;;;;;;;113.20;100.87;;;23.00;99.90;;;;;;4982170;28;20498;-84
2023/10/03 14:23:53;;;;;;;143.47;118.13;;;23.10;99.90;;;;;;4978976;28;20462;-85
2023/10/03 14:26:35;;;;;;;125.83;107.77;;;23.00;99.90;;;;;;4951384;28;20529;-85
2023/10/03 14:29:25;;;;;;;142.83;125.57;;;23.00;99.90;;;;;;4979500;28;20451;-86
2023/10/03 14:34:59;;;;;;;154.17;136.40;;;23.00;99.90;;;;;;4998660;23;20469;-86
2023/10/03 14:37:47;;;;;;;163.27;145.10;;;23.00;99.90;;;;;;4990311;28;20489;-85
2023/10/03 14:40:18;;;;;;;149.20;125.03;;;23.00;99.90;;;;;;5010578;28;20529;-85
2023/10/03 14:42:50;;;;;;;143.57;126.60;;;23.00;99.90;;;;;;5009973;28;20473;-85
2023/10/03 14:45:19;;;;;;;165.80;146.07;;;23.00;99.90;;;;;;5006196;28;20568;-85
2023/10/03 14:47:47;;;;;;;188.33;164.73;;;23.00;99.90;;;;;;5008525;28;20461;-85
2023/10/03 14:50:21;;;;;;;158.50;138.50;;;23.00;99.90;;;;;;5009515;28;20468;-86
2023/10/03 14:53:03;;;;;;;118.10;105.43;;;22.90;99.90;;;;;;5008721;28;20469;-86
2023/10/03 14:55:42;;;;;;;141.10;125.40;;;22.90;99.90;;;;;;5013555;28;20955;-86
2023/10/03 14:58:25;;;;;;;108.43;96.17;;;22.90;99.90;;;;;;5008528;28;20483;-85
2023/10/03 15:01:01;;;;;;;67.60;56.33;;;22.90;99.90;;;;;;5010001;28;20517;-88
2023/10/03 15:03:33;;;;;;;130.80;114.70;;;22.90;99.90;;;;;;5010451;28;20472;-86
2023/10/03 15:06:30;;;;;;;;;;;;;;;;;;;;;